sensor_id;sensor_type;location;lat;lon;timestamp;temperature;humidity
54126;DHT22;40360;52.992;6.796;2023-05-09T00:01:15;15.60;99.90
54126;DHT22;40360;52.992;6.796;2023-05-09T00:03:41;15.60;99.90
54126;DHT22;40360;52.992;6.796;2023-05-09T00:06:07;15.60;99.90
54126;DHT22;40360;52.992;6.796;2023-05-09T00:08:33;15.60;99.90
54126;DHT22;40360;52.992;6.796;2023-05-09T00:11:00;15.60;99.90
54126;DHT22;40360;52.992;6.796;2023-05-09T00:13:26;15.60;99.90
54126;DHT22;40360;52.992;6.796;2023-05-09T00:15:53;15.50;99.90
54126;DHT22;40360;52.992;6.796;2023-05-09T00:18:19;15.60;99.90
54126;DHT22;40360;52.992;6.796;2023-05-09T00:20:47;15.60;99.90
54126;DHT22;40360;52.992;6.796;2023-05-09T00:23:12;15.60;99.90
54126;DHT22;40360;52.992;6.796;2023-05-09T00:25:38;15.60;99.90
54126;DHT22;40360;52.992;6.796;2023-05-09T00:28:03;15.60;99.90
54126;DHT22;40360;52.992;6.796;2023-05-09T00:30:30;15.70;99.90
54126;DHT22;40360;52.992;6.796;2023-05-09T00:32:55;15.70;99.90
54126;DHT22;40360;52.992;6.796;2023-05-09T00:35:21;15.70;99.90
54126;DHT22;40360;52.992;6.796;2023-05-09T00:37:47;15.70;99.90
54126;DHT22;40360;52.992;6.796;2023-05-09T00:40:12;15.70;99.90
54126;DHT22;40360;52.992;6.796;2023-05-09T00:42:38;15.70;99.90
54126;DHT22;40360;52.992;6.796;2023-05-09T00:45:04;15.70;99.90
54126;DHT22;40360;52.992;6.796;2023-05-09T00:47:30;15.70;99.90
54126;DHT22;40360;52.992;6.796;2023-05-09T00:49:56;15.70;99.90
54126;DHT22;40360;52.992;6.796;2023-05-09T00:52:24;15.80;99.90
54126;DHT22;40360;52.992;6.796;2023-05-09T00:54:54;15.70;99.90
54126;DHT22;40360;52.992;6.796;2023-05-09T00:57:20;15.70;99.90
54126;DHT22;40360;52.992;6.796;2023-05-09T00:59:47;15.70;99.90
54126;DHT22;40360;52.992;6.796;2023-05-09T01:02:14;15.70;99.90
54126;DHT22;40360;52.992;6.796;2023-05-09T01:04:40;15.70;99.90
54126;DHT22;40360;52.992;6.796;2023-05-09T01:10:09;15.70;99.90
54126;DHT22;40360;52.992;6.796;2023-05-09T01:12:58;15.70;99.90
54126;DHT22;40360;52.992;6.796;2023-05-09T01:15:49;15.60;99.90
54126;DHT22;40360;52.992;6.796;2023-05-09T01:18:57;15.60;99.90
54126;DHT22;40360;52.992;6.796;2023-05-09T01:21:24;15.50;99.90
54126;DHT22;40360;52.992;6.796;2023-05-09T01:24:30;15.50;99.90
54126;DHT22;40360;52.992;6.796;2023-05-09T01:29:41;15.40;99.90
54126;DHT22;40360;52.992;6.796;2023-05-09T01:32:13;15.30;99.90
54126;DHT22;40360;52.992;6.796;2023-05-09T01:34:43;15.30;99.90
54126;DHT22;40360;52.992;6.796;2023-05-09T01:37:12;15.30;99.90
54126;DHT22;40360;52.992;6.796;2023-05-09T01:39:40;15.30;99.90
54126;DHT22;40360;52.992;6.796;2023-05-09T01:42:08;15.20;99.90
54126;DHT22;40360;52.992;6.796;2023-05-09T01:44:40;15.10;99.90
54126;DHT22;40360;52.992;6.796;2023-05-09T01:47:07;15.20;99.90
54126;DHT22;40360;52.992;6.796;2023-05-09T01:49:35;15.20;99.90
54126;DHT22;40360;52.992;6.796;2023-05-09T01:52:06;15.20;99.90
54126;DHT22;40360;52.992;6.796;2023-05-09T01:54:32;15.10;99.90
54126;DHT22;40360;52.992;6.796;2023-05-09T01:57:00;15.10;99.90
54126;DHT22;40360;52.992;6.796;2023-05-09T01:59:30;15.10;99.90
54126;DHT22;40360;52.992;6.796;2023-05-09T02:01:56;15.00;99.90
54126;DHT22;40360;52.992;6.796;2023-05-09T02:04:23;15.00;99.90
54126;DHT22;40360;52.992;6.796;2023-05-09T02:06:50;15.00;99.90
54126;DHT22;40360;52.992;6.796;2023-05-09T02:09:17;15.00;99.90
54126;DHT22;40360;52.992;6.796;2023-05-09T02:11:43;15.00;99.90
54126;DHT22;40360;52.992;6.796;2023-05-09T02:14:09;15.00;99.90
54126;DHT22;40360;52.992;6.796;2023-05-09T02:16:35;15.00;99.90
54126;DHT22;40360;52.992;6.796;2023-05-09T02:19:01;14.90;99.90
54126;DHT22;40360;52.992;6.796;2023-05-09T02:21:27;14.90;99.90
54126;DHT22;40360;52.992;6.796;2023-05-09T02:23:52;14.90;99.90
54126;DHT22;40360;52.992;6.796;2023-05-09T02:26:18;14.90;99.90
54126;DHT22;40360;52.992;6.796;2023-05-09T02:28:44;14.90;99.90
54126;DHT22;40360;52.992;6.796;2023-05-09T02:31:12;14.80;99.90
54126;DHT22;40360;52.992;6.796;2023-05-09T02:33:39;14.80;99.90
54126;DHT22;40360;52.992;6.796;2023-05-09T02:36:06;14.90;99.90
54126;DHT22;40360;52.992;6.796;2023-05-09T02:38:34;14.90;99.90
54126;DHT22;40360;52.992;6.796;2023-05-09T02:41:00;14.90;99.90
54126;DHT22;40360;52.992;6.796;2023-05-09T02:43:25;14.90;99.90
54126;DHT22;40360;52.992;6.796;2023-05-09T02:45:51;14.90;99.90
54126;DHT22;40360;52.992;6.796;2023-05-09T02:48:16;14.90;99.90
54126;DHT22;40360;52.992;6.796;2023-05-09T02:50:42;14.80;99.90
54126;DHT22;40360;52.992;6.796;2023-05-09T02:53:08;14.80;99.90
54126;DHT22;40360;52.992;6.796;2023-05-09T02:55:34;14.80;99.90
54126;DHT22;40360;52.992;6.796;2023-05-09T02:58:00;14.80;99.90
54126;DHT22;40360;52.992;6.796;2023-05-09T03:00:25;14.80;99.90
54126;DHT22;40360;52.992;6.796;2023-05-09T03:02:51;14.80;99.90
54126;DHT22;40360;52.992;6.796;2023-05-09T03:05:17;14.70;99.90
54126;DHT22;40360;52.992;6.796;2023-05-09T03:07:43;14.70;99.90
54126;DHT22;40360;52.992;6.796;2023-05-09T03:10:09;14.70;99.90
54126;DHT22;40360;52.992;6.796;2023-05-09T03:12:37;14.70;99.90
54126;DHT22;40360;52.992;6.796;2023-05-09T03:15:05;14.70;99.90
54126;DHT22;40360;52.992;6.796;2023-05-09T03:17:30;14.60;99.90
54126;DHT22;40360;52.992;6.796;2023-05-09T03:19:56;14.60;99.90
54126;DHT22;40360;52.992;6.796;2023-05-09T03:22:22;14.60;99.90
54126;DHT22;40360;52.992;6.796;2023-05-09T03:24:48;14.60;99.90
54126;DHT22;40360;52.992;6.796;2023-05-09T03:27:13;14.50;99.90
54126;DHT22;40360;52.992;6.796;2023-05-09T03:29:39;14.50;99.90
54126;DHT22;40360;52.992;6.796;2023-05-09T03:32:05;14.50;99.90
54126;DHT22;40360;52.992;6.796;2023-05-09T03:34:30;14.50;99.90
54126;DHT22;40360;52.992;6.796;2023-05-09T03:36:56;14.50;99.90
54126;DHT22;40360;52.992;6.796;2023-05-09T03:39:21;14.50;99.90
54126;DHT22;40360;52.992;6.796;2023-05-09T03:41:47;14.50;99.90
54126;DHT22;40360;52.992;6.796;2023-05-09T03:44:13;14.50;99.90
54126;DHT22;40360;52.992;6.796;2023-05-09T03:46:39;14.50;99.90
54126;DHT22;40360;52.992;6.796;2023-05-09T03:49:05;14.50;99.90
54126;DHT22;40360;52.992;6.796;2023-05-09T03:51:30;14.50;99.90
54126;DHT22;40360;52.992;6.796;2023-05-09T03:53:57;14.50;99.90
54126;DHT22;40360;52.992;6.796;2023-05-09T03:56:22;14.40;99.90
54126;DHT22;40360;52.992;6.796;2023-05-09T03:58:48;14.40;99.90
54126;DHT22;40360;52.992;6.796;2023-05-09T04:01:14;14.40;99.90
54126;DHT22;40360;52.992;6.796;2023-05-09T04:03:40;14.40;99.90
54126;DHT22;40360;52.992;6.796;2023-05-09T04:06:06;14.30;99.90
54126;DHT22;40360;52.992;6.796;2023-05-09T04:08:32;14.30;99.90
54126;DHT22;40360;52.992;6.796;2023-05-09T04:10:58;14.30;99.90
54126;DHT22;40360;52.992;6.796;2023-05-09T04:13:24;14.30;99.90
54126;DHT22;40360;52.992;6.796;2023-05-09T04:15:49;14.30;99.90
54126;DHT22;40360;52.992;6.796;2023-05-09T04:18:15;14.20;99.90
54126;DHT22;40360;52.992;6.796;2023-05-09T04:20:41;14.30;99.90
54126;DHT22;40360;52.992;6.796;2023-05-09T04:23:07;14.30;99.90
54126;DHT22;40360;52.992;6.796;2023-05-09T04:25:32;14.30;99.90
54126;DHT22;40360;52.992;6.796;2023-05-09T04:27:58;14.20;99.90
54126;DHT22;40360;52.992;6.796;2023-05-09T04:30:24;14.20;99.90
54126;DHT22;40360;52.992;6.796;2023-05-09T04:32:53;14.20;99.90
54126;DHT22;40360;52.992;6.796;2023-05-09T04:35:20;14.20;99.90
54126;DHT22;40360;52.992;6.796;2023-05-09T04:37:46;14.30;99.90
54126;DHT22;40360;52.992;6.796;2023-05-09T04:40:12;14.20;99.90
54126;DHT22;40360;52.992;6.796;2023-05-09T04:42:38;14.20;99.90
54126;DHT22;40360;52.992;6.796;2023-05-09T04:45:04;14.20;99.90
54126;DHT22;40360;52.992;6.796;2023-05-09T04:47:30;14.20;99.90
54126;DHT22;40360;52.992;6.796;2023-05-09T04:49:56;14.20;99.90
54126;DHT22;40360;52.992;6.796;2023-05-09T04:52:21;14.30;99.90
54126;DHT22;40360;52.992;6.796;2023-05-09T04:54:47;14.20;99.90
54126;DHT22;40360;52.992;6.796;2023-05-09T04:57:13;14.20;99.90
54126;DHT22;40360;52.992;6.796;2023-05-09T04:59:41;14.20;99.90
54126;DHT22;40360;52.992;6.796;2023-05-09T05:02:07;14.30;99.90
54126;DHT22;40360;52.992;6.796;2023-05-09T05:04:33;14.30;99.90
54126;DHT22;40360;52.992;6.796;2023-05-09T05:07:00;14.30;99.90
54126;DHT22;40360;52.992;6.796;2023-05-09T05:09:26;14.30;99.90
54126;DHT22;40360;52.992;6.796;2023-05-09T05:11:51;14.30;99.90
54126;DHT22;40360;52.992;6.796;2023-05-09T05:14:17;14.40;99.90
54126;DHT22;40360;52.992;6.796;2023-05-09T05:16:42;14.40;99.90
54126;DHT22;40360;52.992;6.796;2023-05-09T05:19:08;14.40;99.90
54126;DHT22;40360;52.992;6.796;2023-05-09T05:21:33;14.50;99.90
54126;DHT22;40360;52.992;6.796;2023-05-09T05:23:59;14.50;99.90
54126;DHT22;40360;52.992;6.796;2023-05-09T05:26:25;14.50;99.90
54126;DHT22;40360;52.992;6.796;2023-05-09T05:28:50;14.60;99.90
54126;DHT22;40360;52.992;6.796;2023-05-09T05:31:20;14.60;99.90
54126;DHT22;40360;52.992;6.796;2023-05-09T05:33:46;14.60;99.90
54126;DHT22;40360;52.992;6.796;2023-05-09T05:36:11;14.70;99.90
54126;DHT22;40360;52.992;6.796;2023-05-09T05:38:37;14.60;99.90
54126;DHT22;40360;52.992;6.796;2023-05-09T05:41:03;14.70;99.90
54126;DHT22;40360;52.992;6.796;2023-05-09T06:01:57;16.00;99.90
54126;DHT22;40360;52.992;6.796;2023-05-09T06:04:23;14.80;99.90
54126;DHT22;40360;52.992;6.796;2023-05-09T06:06:49;14.80;99.90
54126;DHT22;40360;52.992;6.796;2023-05-09T06:09:15;14.80;99.90
54126;DHT22;40360;52.992;6.796;2023-05-09T06:11:41;14.90;99.90
54126;DHT22;40360;52.992;6.796;2023-05-09T06:14:06;14.90;99.90
54126;DHT22;40360;52.992;6.796;2023-05-09T06:16:32;14.90;99.90
54126;DHT22;40360;52.992;6.796;2023-05-09T06:18:57;14.90;99.90
54126;DHT22;40360;52.992;6.796;2023-05-09T06:21:23;15.00;99.90
54126;DHT22;40360;52.992;6.796;2023-05-09T06:23:49;15.10;99.90
54126;DHT22;40360;52.992;6.796;2023-05-09T06:26:14;15.10;99.90
54126;DHT22;40360;52.992;6.796;2023-05-09T06:28:40;15.20;99.90
54126;DHT22;40360;52.992;6.796;2023-05-09T06:31:05;15.30;99.90
54126;DHT22;40360;52.992;6.796;2023-05-09T06:33:31;15.30;99.90
54126;DHT22;40360;52.992;6.796;2023-05-09T06:35:58;15.40;99.90
54126;DHT22;40360;52.992;6.796;2023-05-09T06:38:24;15.40;99.90
54126;DHT22;40360;52.992;6.796;2023-05-09T06:40:50;15.40;99.90
54126;DHT22;40360;52.992;6.796;2023-05-09T06:43:15;15.50;99.90
54126;DHT22;40360;52.992;6.796;2023-05-09T06:45:41;15.50;99.90
54126;DHT22;40360;52.992;6.796;2023-05-09T06:48:07;15.50;99.90
54126;DHT22;40360;52.992;6.796;2023-05-09T06:50:32;15.50;99.90
54126;DHT22;40360;52.992;6.796;2023-05-09T06:52:58;15.50;99.90
54126;DHT22;40360;52.992;6.796;2023-05-09T06:55:23;15.50;99.90
54126;DHT22;40360;52.992;6.796;2023-05-09T06:57:49;15.60;99.90
54126;DHT22;40360;52.992;6.796;2023-05-09T07:00:15;15.60;99.90
54126;DHT22;40360;52.992;6.796;2023-05-09T07:02:40;15.60;99.90
54126;DHT22;40360;52.992;6.796;2023-05-09T07:05:08;15.70;99.90
54126;DHT22;40360;52.992;6.796;2023-05-09T07:07:34;15.70;99.90
54126;DHT22;40360;52.992;6.796;2023-05-09T07:10:00;15.70;99.90
54126;DHT22;40360;52.992;6.796;2023-05-09T07:12:30;15.70;99.90
54126;DHT22;40360;52.992;6.796;2023-05-09T07:14:55;15.70;99.90
54126;DHT22;40360;52.992;6.796;2023-05-09T07:17:21;15.70;99.90
54126;DHT22;40360;52.992;6.796;2023-05-09T07:19:47;15.70;99.90
54126;DHT22;40360;52.992;6.796;2023-05-09T07:22:13;15.70;99.90
54126;DHT22;40360;52.992;6.796;2023-05-09T07:24:38;15.70;99.90
54126;DHT22;40360;52.992;6.796;2023-05-09T07:27:04;15.70;99.90
54126;DHT22;40360;52.992;6.796;2023-05-09T07:29:30;15.70;99.90
54126;DHT22;40360;52.992;6.796;2023-05-09T07:31:55;15.70;99.90
54126;DHT22;40360;52.992;6.796;2023-05-09T07:34:21;15.70;99.90
54126;DHT22;40360;52.992;6.796;2023-05-09T07:36:48;15.70;99.90
54126;DHT22;40360;52.992;6.796;2023-05-09T07:39:13;15.70;99.90
54126;DHT22;40360;52.992;6.796;2023-05-09T07:41:39;15.70;99.90
54126;DHT22;40360;52.992;6.796;2023-05-09T07:44:05;15.80;99.90
54126;DHT22;40360;52.992;6.796;2023-05-09T07:46:30;15.80;99.90
54126;DHT22;40360;52.992;6.796;2023-05-09T07:48:56;15.80;99.90
54126;DHT22;40360;52.992;6.796;2023-05-09T07:51:21;15.80;99.90
54126;DHT22;40360;52.992;6.796;2023-05-09T07:53:47;15.80;99.90
54126;DHT22;40360;52.992;6.796;2023-05-09T07:56:12;15.80;99.90
54126;DHT22;40360;52.992;6.796;2023-05-09T07:58:38;15.80;99.90
54126;DHT22;40360;52.992;6.796;2023-05-09T08:01:04;15.90;99.90
54126;DHT22;40360;52.992;6.796;2023-05-09T08:03:30;15.90;99.90
54126;DHT22;40360;52.992;6.796;2023-05-09T08:05:55;15.90;99.90
54126;DHT22;40360;52.992;6.796;2023-05-09T08:08:21;15.90;99.90
54126;DHT22;40360;52.992;6.796;2023-05-09T08:10:47;16.00;99.90
54126;DHT22;40360;52.992;6.796;2023-05-09T08:13:13;16.00;99.90
54126;DHT22;40360;52.992;6.796;2023-05-09T08:15:38;16.00;99.90
54126;DHT22;40360;52.992;6.796;2023-05-09T08:18:04;16.00;99.90
54126;DHT22;40360;52.992;6.796;2023-05-09T08:20:30;16.10;99.90
54126;DHT22;40360;52.992;6.796;2023-05-09T08:22:56;16.10;99.90
54126;DHT22;40360;52.992;6.796;2023-05-09T08:25:22;16.20;99.90
54126;DHT22;40360;52.992;6.796;2023-05-09T08:27:47;16.20;99.90
54126;DHT22;40360;52.992;6.796;2023-05-09T08:30:13;16.30;99.90
54126;DHT22;40360;52.992;6.796;2023-05-09T08:32:39;16.40;99.90
54126;DHT22;40360;52.992;6.796;2023-05-09T08:35:05;16.40;99.90
54126;DHT22;40360;52.992;6.796;2023-05-09T08:37:34;16.50;99.90
54126;DHT22;40360;52.992;6.796;2023-05-09T08:40:00;16.50;99.90
54126;DHT22;40360;52.992;6.796;2023-05-09T08:42:26;16.60;99.90
54126;DHT22;40360;52.992;6.796;2023-05-09T08:44:52;16.60;99.90
54126;DHT22;40360;52.992;6.796;2023-05-09T08:47:19;16.70;99.90
54126;DHT22;40360;52.992;6.796;2023-05-09T08:49:46;16.90;99.90
54126;DHT22;40360;52.992;6.796;2023-05-09T08:52:12;16.90;99.90
54126;DHT22;40360;52.992;6.796;2023-05-09T08:54:39;17.00;99.90
54126;DHT22;40360;52.992;6.796;2023-05-09T08:57:05;17.00;99.90
54126;DHT22;40360;52.992;6.796;2023-05-09T08:59:31;17.00;99.90
54126;DHT22;40360;52.992;6.796;2023-05-09T09:01:59;17.10;99.90
54126;DHT22;40360;52.992;6.796;2023-05-09T09:04:25;17.10;99.90
54126;DHT22;40360;52.992;6.796;2023-05-09T09:06:51;17.10;99.90
54126;DHT22;40360;52.992;6.796;2023-05-09T09:09:18;17.20;99.90
54126;DHT22;40360;52.992;6.796;2023-05-09T09:11:45;17.30;99.90
54126;DHT22;40360;52.992;6.796;2023-05-09T09:14:13;17.40;99.90
54126;DHT22;40360;52.992;6.796;2023-05-09T09:16:41;17.50;99.90
54126;DHT22;40360;52.992;6.796;2023-05-09T09:19:12;17.50;99.90
54126;DHT22;40360;52.992;6.796;2023-05-09T09:21:41;17.50;99.90
54126;DHT22;40360;52.992;6.796;2023-05-09T09:24:12;17.60;99.90
54126;DHT22;40360;52.992;6.796;2023-05-09T09:26:48;17.70;99.90
54126;DHT22;40360;52.992;6.796;2023-05-09T09:29:15;17.70;99.90
54126;DHT22;40360;52.992;6.796;2023-05-09T09:31:45;17.80;99.90
54126;DHT22;40360;52.992;6.796;2023-05-09T09:34:12;17.80;99.90
54126;DHT22;40360;52.992;6.796;2023-05-09T09:36:40;17.80;99.90
54126;DHT22;40360;52.992;6.796;2023-05-09T09:39:06;17.90;99.90
54126;DHT22;40360;52.992;6.796;2023-05-09T09:41:37;17.90;99.90
54126;DHT22;40360;52.992;6.796;2023-05-09T09:44:11;17.90;99.90
54126;DHT22;40360;52.992;6.796;2023-05-09T09:46:50;17.90;99.90
54126;DHT22;40360;52.992;6.796;2023-05-09T09:49:21;18.00;99.90
54126;DHT22;40360;52.992;6.796;2023-05-09T09:51:56;18.10;99.90
54126;DHT22;40360;52.992;6.796;2023-05-09T09:54:25;18.10;99.90
54126;DHT22;40360;52.992;6.796;2023-05-09T09:56:52;18.20;99.90
54126;DHT22;40360;52.992;6.796;2023-05-09T09:59:20;18.20;99.90
54126;DHT22;40360;52.992;6.796;2023-05-09T10:01:58;18.10;99.90
54126;DHT22;40360;52.992;6.796;2023-05-09T10:04:25;18.00;99.90
54126;DHT22;40360;52.992;6.796;2023-05-09T10:06:52;17.90;99.90
54126;DHT22;40360;52.992;6.796;2023-05-09T10:09:20;18.00;99.90
54126;DHT22;40360;52.992;6.796;2023-05-09T10:11:48;18.00;99.90
54126;DHT22;40360;52.992;6.796;2023-05-09T10:14:17;17.90;99.90
54126;DHT22;40360;52.992;6.796;2023-05-09T10:16:43;17.80;99.90
54126;DHT22;40360;52.992;6.796;2023-05-09T10:19:09;17.80;99.90
54126;DHT22;40360;52.992;6.796;2023-05-09T10:21:36;17.80;99.90
54126;DHT22;40360;52.992;6.796;2023-05-09T10:24:04;17.80;99.90
54126;DHT22;40360;52.992;6.796;2023-05-09T10:26:31;17.90;99.90
54126;DHT22;40360;52.992;6.796;2023-05-09T10:29:05;18.10;99.90
54126;DHT22;40360;52.992;6.796;2023-05-09T10:31:36;18.30;99.90
54126;DHT22;40360;52.992;6.796;2023-05-09T10:34:08;18.70;99.90
54126;DHT22;40360;52.992;6.796;2023-05-09T10:36:34;18.90;99.90
54126;DHT22;40360;52.992;6.796;2023-05-09T10:39:01;19.10;99.90
54126;DHT22;40360;52.992;6.796;2023-05-09T10:41:26;19.20;99.90
54126;DHT22;40360;52.992;6.796;2023-05-09T10:43:55;19.30;99.90
54126;DHT22;40360;52.992;6.796;2023-05-09T10:46:22;19.20;99.90
54126;DHT22;40360;52.992;6.796;2023-05-09T10:48:48;19.20;99.90
54126;DHT22;40360;52.992;6.796;2023-05-09T10:51:15;19.30;99.90
54126;DHT22;40360;52.992;6.796;2023-05-09T10:53:49;19.20;99.90
54126;DHT22;40360;52.992;6.796;2023-05-09T10:58:51;19.10;99.90
54126;DHT22;40360;52.992;6.796;2023-05-09T11:03:58;18.90;99.90
54126;DHT22;40360;52.992;6.796;2023-05-09T11:06:50;18.80;99.90
54126;DHT22;40360;52.992;6.796;2023-05-09T11:09:34;18.90;99.90
54126;DHT22;40360;52.992;6.796;2023-05-09T11:12:12;19.00;99.90
54126;DHT22;40360;52.992;6.796;2023-05-09T11:22:19;19.00;99.90
54126;DHT22;40360;52.992;6.796;2023-05-09T11:24:47;19.00;99.90
54126;DHT22;40360;52.992;6.796;2023-05-09T11:27:24;19.00;99.90
54126;DHT22;40360;52.992;6.796;2023-05-09T11:29:54;19.00;99.90
54126;DHT22;40360;52.992;6.796;2023-05-09T11:32:23;18.90;99.90
54126;DHT22;40360;52.992;6.796;2023-05-09T11:34:51;18.90;99.90
54126;DHT22;40360;52.992;6.796;2023-05-09T11:37:17;18.80;99.90
54126;DHT22;40360;52.992;6.796;2023-05-09T11:40:02;18.80;99.90
54126;DHT22;40360;52.992;6.796;2023-05-09T11:42:29;18.90;99.90
54126;DHT22;40360;52.992;6.796;2023-05-09T11:44:56;19.10;99.90
54126;DHT22;40360;52.992;6.796;2023-05-09T11:47:23;19.30;99.90
54126;DHT22;40360;52.992;6.796;2023-05-09T11:49:49;19.40;99.90
54126;DHT22;40360;52.992;6.796;2023-05-09T11:52:17;19.50;99.90
54126;DHT22;40360;52.992;6.796;2023-05-09T11:54:43;19.60;99.90
54126;DHT22;40360;52.992;6.796;2023-05-09T11:57:09;19.50;99.90
54126;DHT22;40360;52.992;6.796;2023-05-09T11:59:35;19.50;99.90
54126;DHT22;40360;52.992;6.796;2023-05-09T12:02:06;19.50;99.90
54126;DHT22;40360;52.992;6.796;2023-05-09T12:04:32;19.50;99.90
54126;DHT22;40360;52.992;6.796;2023-05-09T12:06:58;19.50;99.90
54126;DHT22;40360;52.992;6.796;2023-05-09T12:09:34;19.40;99.90
54126;DHT22;40360;52.992;6.796;2023-05-09T12:12:10;19.30;99.90
54126;DHT22;40360;52.992;6.796;2023-05-09T12:14:36;19.30;99.90
54126;DHT22;40360;52.992;6.796;2023-05-09T12:17:02;19.30;99.90
54126;DHT22;40360;52.992;6.796;2023-05-09T12:19:28;19.30;99.90
54126;DHT22;40360;52.992;6.796;2023-05-09T12:21:58;19.30;99.90
54126;DHT22;40360;52.992;6.796;2023-05-09T12:24:28;19.40;99.90
54126;DHT22;40360;52.992;6.796;2023-05-09T12:26:56;19.50;99.90
54126;DHT22;40360;52.992;6.796;2023-05-09T12:29:23;19.50;99.90
54126;DHT22;40360;52.992;6.796;2023-05-09T12:31:49;19.60;99.90
54126;DHT22;40360;52.992;6.796;2023-05-09T12:34:15;19.60;99.90
54126;DHT22;40360;52.992;6.796;2023-05-09T12:36:44;19.60;99.90
54126;DHT22;40360;52.992;6.796;2023-05-09T12:39:19;19.60;99.90
54126;DHT22;40360;52.992;6.796;2023-05-09T12:41:49;19.60;99.90
54126;DHT22;40360;52.992;6.796;2023-05-09T12:44:28;19.70;99.90
54126;DHT22;40360;52.992;6.796;2023-05-09T12:47:01;19.80;99.90
54126;DHT22;40360;52.992;6.796;2023-05-09T12:49:29;19.90;99.90
54126;DHT22;40360;52.992;6.796;2023-05-09T12:51:57;19.90;99.90
54126;DHT22;40360;52.992;6.796;2023-05-09T12:54:24;19.90;99.90
54126;DHT22;40360;52.992;6.796;2023-05-09T12:56:51;19.90;99.90
54126;DHT22;40360;52.992;6.796;2023-05-09T12:59:25;19.90;99.90
54126;DHT22;40360;52.992;6.796;2023-05-09T13:01:56;19.90;99.90
54126;DHT22;40360;52.992;6.796;2023-05-09T13:04:22;19.90;99.90
54126;DHT22;40360;52.992;6.796;2023-05-09T13:06:49;19.90;99.90
54126;DHT22;40360;52.992;6.796;2023-05-09T13:09:16;19.90;99.90
54126;DHT22;40360;52.992;6.796;2023-05-09T13:11:42;19.90;99.90
54126;DHT22;40360;52.992;6.796;2023-05-09T13:14:08;19.90;99.90
54126;DHT22;40360;52.992;6.796;2023-05-09T13:16:34;19.80;99.90
54126;DHT22;40360;52.992;6.796;2023-05-09T13:19:00;19.80;99.90
54126;DHT22;40360;52.992;6.796;2023-05-09T13:21:30;19.80;99.90
54126;DHT22;40360;52.992;6.796;2023-05-09T13:23:55;19.80;99.90
54126;DHT22;40360;52.992;6.796;2023-05-09T13:26:21;19.70;99.90
54126;DHT22;40360;52.992;6.796;2023-05-09T13:28:47;19.60;99.90
54126;DHT22;40360;52.992;6.796;2023-05-09T13:31:13;19.50;99.90
54126;DHT22;40360;52.992;6.796;2023-05-09T13:33:39;19.30;99.90
54126;DHT22;40360;52.992;6.796;2023-05-09T13:36:05;19.20;99.90
54126;DHT22;40360;52.992;6.796;2023-05-09T13:38:31;19.20;99.90
54126;DHT22;40360;52.992;6.796;2023-05-09T13:41:01;19.10;99.90
54126;DHT22;40360;52.992;6.796;2023-05-09T13:43:26;19.00;99.90
54126;DHT22;40360;52.992;6.796;2023-05-09T13:45:52;18.90;99.90
54126;DHT22;40360;52.992;6.796;2023-05-09T13:48:18;18.70;99.90
54126;DHT22;40360;52.992;6.796;2023-05-09T13:50:45;18.60;99.90
54126;DHT22;40360;52.992;6.796;2023-05-09T13:53:11;18.50;99.90
54126;DHT22;40360;52.992;6.796;2023-05-09T13:55:36;18.50;99.90
54126;DHT22;40360;52.992;6.796;2023-05-09T13:58:02;18.30;99.90
54126;DHT22;40360;52.992;6.796;2023-05-09T14:00:28;18.20;99.90
54126;DHT22;40360;52.992;6.796;2023-05-09T14:02:53;18.10;99.90
54126;DHT22;40360;52.992;6.796;2023-05-09T14:05:19;18.00;99.90
54126;DHT22;40360;52.992;6.796;2023-05-09T14:07:44;18.00;99.90
54126;DHT22;40360;52.992;6.796;2023-05-09T14:10:11;17.90;99.90
54126;DHT22;40360;52.992;6.796;2023-05-09T14:12:37;17.90;99.90
54126;DHT22;40360;52.992;6.796;2023-05-09T14:15:07;17.90;99.90
54126;DHT22;40360;52.992;6.796;2023-05-09T14:17:33;18.00;99.90
54126;DHT22;40360;52.992;6.796;2023-05-09T14:19:58;17.90;99.90
54126;DHT22;40360;52.992;6.796;2023-05-09T14:22:24;18.00;99.90
54126;DHT22;40360;52.992;6.796;2023-05-09T14:24:49;18.10;99.90
54126;DHT22;40360;52.992;6.796;2023-05-09T14:27:15;17.90;99.90
54126;DHT22;40360;52.992;6.796;2023-05-09T14:29:41;17.90;99.90
54126;DHT22;40360;52.992;6.796;2023-05-09T14:32:07;17.80;99.90
54126;DHT22;40360;52.992;6.796;2023-05-09T14:34:37;17.80;99.90
54126;DHT22;40360;52.992;6.796;2023-05-09T14:37:03;17.70;99.90
54126;DHT22;40360;52.992;6.796;2023-05-09T14:39:29;17.70;99.90
54126;DHT22;40360;52.992;6.796;2023-05-09T14:41:54;17.70;99.90
54126;DHT22;40360;52.992;6.796;2023-05-09T14:44:20;17.70;99.90
54126;DHT22;40360;52.992;6.796;2023-05-09T14:46:45;17.70;99.90
54126;DHT22;40360;52.992;6.796;2023-05-09T14:49:12;17.60;99.90
54126;DHT22;40360;52.992;6.796;2023-05-09T14:51:37;17.50;99.90
54126;DHT22;40360;52.992;6.796;2023-05-09T14:54:03;17.60;99.90
54126;DHT22;40360;52.992;6.796;2023-05-09T14:56:28;17.50;99.90
54126;DHT22;40360;52.992;6.796;2023-05-09T14:58:54;17.50;99.90
54126;DHT22;40360;52.992;6.796;2023-05-09T15:01:20;17.50;99.90
54126;DHT22;40360;52.992;6.796;2023-05-09T15:03:45;17.50;99.90
54126;DHT22;40360;52.992;6.796;2023-05-09T15:06:12;17.50;99.90
54126;DHT22;40360;52.992;6.796;2023-05-09T15:08:38;17.40;99.90
54126;DHT22;40360;52.992;6.796;2023-05-09T15:11:03;17.40;99.90
54126;DHT22;40360;52.992;6.796;2023-05-09T15:13:29;17.40;99.90
54126;DHT22;40360;52.992;6.796;2023-05-09T15:15:54;17.40;99.90
54126;DHT22;40360;52.992;6.796;2023-05-09T15:18:21;17.40;99.90
54126;DHT22;40360;52.992;6.796;2023-05-09T15:20:48;17.40;99.90
54126;DHT22;40360;52.992;6.796;2023-05-09T15:23:16;17.30;99.90
54126;DHT22;40360;52.992;6.796;2023-05-09T15:25:42;17.40;99.90
54126;DHT22;40360;52.992;6.796;2023-05-09T15:28:07;17.30;99.90
54126;DHT22;40360;52.992;6.796;2023-05-09T15:30:33;17.30;99.90
54126;DHT22;40360;52.992;6.796;2023-05-09T15:33:00;17.30;99.90
54126;DHT22;40360;52.992;6.796;2023-05-09T15:35:26;17.30;99.90
54126;DHT22;40360;52.992;6.796;2023-05-09T15:37:51;17.30;99.90
54126;DHT22;40360;52.992;6.796;2023-05-09T15:40:17;17.20;99.90
54126;DHT22;40360;52.992;6.796;2023-05-09T15:42:43;17.20;99.90
54126;DHT22;40360;52.992;6.796;2023-05-09T15:45:08;17.10;99.90
54126;DHT22;40360;52.992;6.796;2023-05-09T15:47:34;17.10;99.90
54126;DHT22;40360;52.992;6.796;2023-05-09T15:50:00;17.10;99.90
54126;DHT22;40360;52.992;6.796;2023-05-09T15:52:25;17.10;99.90
54126;DHT22;40360;52.992;6.796;2023-05-09T15:54:53;17.10;99.90
54126;DHT22;40360;52.992;6.796;2023-05-09T15:57:19;17.10;99.90
54126;DHT22;40360;52.992;6.796;2023-05-09T15:59:44;17.00;99.90
54126;DHT22;40360;52.992;6.796;2023-05-09T16:02:10;16.90;99.90
54126;DHT22;40360;52.992;6.796;2023-05-09T16:04:36;16.90;99.90
54126;DHT22;40360;52.992;6.796;2023-05-09T16:07:02;16.90;99.90